createdAt,value
2019-05-17T00:02:08.315Z,25.33
2019-05-17T00:04:37.641Z,27.67
2019-05-17T00:07:07.067Z,23.97
2019-05-17T00:09:37.406Z,32.53
2019-05-17T00:12:07.527Z,31.20
2019-05-17T00:14:36.977Z,29.80
2019-05-17T00:17:06.794Z,24.30
2019-05-17T00:19:36.885Z,24.83
2019-05-17T00:22:08.294Z,25.23
2019-05-17T00:24:38.086Z,32.90
2019-05-17T00:27:08.038Z,24.83
2019-05-17T00:29:42.106Z,27.03
2019-05-17T00:32:11.799Z,25.80
2019-05-17T00:34:41.474Z,25.43
2019-05-17T00:37:14.678Z,31.70
2019-05-17T00:39:47.172Z,26.10
2019-05-17T00:42:17.122Z,24.93
2019-05-17T00:44:47.401Z,30.27
2019-05-17T00:47:17.226Z,28.37
2019-05-17T00:49:47.113Z,28.83
2019-05-17T00:52:16.815Z,24.20
2019-05-17T00:54:48.767Z,24.90
2019-05-17T00:57:18.649Z,27.63
2019-05-17T00:59:48.131Z,24.30
2019-05-17T01:02:17.787Z,26.77
2019-05-17T01:04:47.727Z,28.00
2019-05-17T01:07:17.714Z,34.40
2019-05-17T01:09:47.347Z,34.27
2019-05-17T01:12:16.643Z,26.80
2019-05-17T01:14:46.628Z,25.20
2019-05-17T01:17:17.135Z,28.87
2019-05-17T01:19:47.234Z,30.77
2019-05-17T01:22:17.013Z,23.70
2019-05-17T01:24:46.409Z,29.30
2019-05-17T01:27:17.214Z,26.50
2019-05-17T01:29:46.739Z,38.83
2019-05-17T01:32:17.288Z,30.10
2019-05-17T01:34:46.965Z,31.17
2019-05-17T01:37:17.151Z,24.07
2019-05-17T01:39:46.970Z,29.00
2019-05-17T01:42:17.159Z,29.87
2019-05-17T01:44:47.226Z,29.37
2019-05-17T01:47:16.793Z,26.90
2019-05-17T01:49:46.939Z,27.17
2019-05-17T01:52:16.774Z,33.20
2019-05-17T01:54:46.934Z,29.60
2019-05-17T01:57:16.945Z,27.73
2019-05-17T01:59:46.806Z,28.17
2019-05-17T02:02:24.203Z,26.57
2019-05-17T02:04:53.617Z,28.13
2019-05-17T02:07:22.957Z,28.10
2019-05-17T02:09:52.294Z,29.00
2019-05-17T02:12:21.619Z,31.23
2019-05-17T02:14:50.959Z,32.30
2019-05-17T02:17:20.327Z,38.73
2019-05-17T02:19:49.660Z,31.97
2019-05-17T02:22:19.013Z,34.00
2019-05-17T02:24:48.348Z,39.20
2019-05-17T02:27:18.124Z,33.60
2019-05-17T02:29:47.461Z,48.57
2019-05-17T02:32:17.326Z,39.07
2019-05-17T02:34:46.674Z,38.27
2019-05-17T02:37:16.007Z,39.23
2019-05-17T02:39:58.287Z,40.30
2019-05-17T02:42:16.691Z,42.80
2019-05-17T02:44:46.102Z,42.57
2019-05-17T02:47:15.437Z,33.03
2019-05-17T02:49:44.775Z,34.13
2019-05-17T02:52:14.104Z,44.60
2019-05-17T02:54:43.828Z,43.43
2019-05-17T02:57:14.128Z,48.27
2019-05-17T02:59:44.051Z,44.10
2019-05-17T03:02:13.447Z,45.57
2019-05-17T03:04:43.409Z,47.77
2019-05-17T03:07:13.734Z,44.53
2019-05-17T03:09:43.366Z,48.27
2019-05-17T03:12:12.991Z,45.20
2019-05-17T03:14:43.253Z,42.50
2019-05-17T03:17:14.004Z,40.30
2019-05-17T03:19:44.001Z,47.67
2019-05-17T03:22:13.435Z,46.67
2019-05-17T03:24:43.957Z,51.00
2019-05-17T03:27:13.814Z,56.73
2019-05-17T03:29:43.257Z,46.93
2019-05-17T03:32:17.420Z,51.33
2019-05-17T03:34:47.583Z,46.33
2019-05-17T03:37:17.171Z,47.20
2019-05-17T03:39:46.551Z,45.37
2019-05-17T03:42:15.887Z,48.03
2019-05-17T03:44:45.233Z,57.03
2019-05-17T03:47:14.565Z,43.57
2019-05-17T03:49:43.968Z,53.37
2019-05-17T03:52:13.785Z,40.17
2019-05-17T03:54:43.254Z,43.67
2019-05-17T03:57:13.443Z,48.80
2019-05-17T03:59:43.224Z,48.83
2019-05-17T04:02:12.690Z,43.83
2019-05-17T04:04:42.936Z,47.90
2019-05-17T04:07:12.880Z,47.30
2019-05-17T04:09:43.722Z,45.10
2019-05-17T04:12:13.770Z,47.33
2019-05-17T04:14:43.189Z,58.33
2019-05-17T04:17:13.302Z,45.20
2019-05-17T04:19:42.817Z,51.00
2019-05-17T04:22:13.873Z,52.73
2019-05-17T04:24:43.988Z,64.33
2019-05-17T04:27:13.708Z,51.97
2019-05-17T04:29:43.202Z,50.00
2019-05-17T04:32:13.098Z,55.67
2019-05-17T04:34:43.751Z,65.83
2019-05-17T04:37:13.282Z,56.03
2019-05-17T04:39:43.354Z,59.17
2019-05-17T04:42:13.603Z,66.93
2019-05-17T04:44:43.406Z,69.97
2019-05-17T04:47:13.431Z,65.77
2019-05-17T04:49:44.042Z,69.37
2019-05-17T04:52:13.960Z,63.83
2019-05-17T04:54:44.303Z,68.00
2019-05-17T04:57:13.937Z,66.53
2019-05-17T04:59:43.628Z,71.23
2019-05-17T05:02:13.372Z,64.33
2019-05-17T05:04:43.727Z,64.50
2019-05-17T05:07:13.889Z,65.80
2019-05-17T05:09:43.339Z,71.77
2019-05-17T05:12:12.783Z,70.33
2019-05-17T05:14:43.166Z,69.60
2019-05-17T05:17:12.982Z,74.70
2019-05-17T05:19:42.465Z,63.43
2019-05-17T05:22:13.503Z,63.63
2019-05-17T05:24:43.095Z,64.53
2019-05-17T05:27:12.426Z,67.73
2019-05-17T05:29:41.774Z,70.20
2019-05-17T05:32:11.819Z,77.23
2019-05-17T05:34:42.926Z,80.40
2019-05-17T05:37:12.603Z,66.87
2019-05-17T05:39:41.994Z,84.53
2019-05-17T05:42:13.822Z,74.80
2019-05-17T05:44:42.400Z,83.90
2019-05-17T05:47:11.790Z,81.20
2019-05-17T05:49:42.579Z,87.47
2019-05-17T05:52:12.515Z,86.73
2019-05-17T05:54:43.532Z,90.73
2019-05-17T05:57:12.953Z,73.93
2019-05-17T05:59:42.590Z,81.60
2019-05-17T06:02:12.293Z,79.63
2019-05-17T06:04:42.451Z,79.23
2019-05-17T06:07:12.879Z,85.87
2019-05-17T06:09:42.500Z,84.07
2019-05-17T06:12:23.401Z,74.57
2019-05-17T06:14:42.981Z,80.10
2019-05-17T06:17:12.694Z,94.70
2019-05-17T06:19:42.296Z,83.87
2019-05-17T06:22:12.111Z,82.53
2019-05-17T06:24:42.472Z,79.03
2019-05-17T06:27:12.393Z,77.63
2019-05-17T06:29:41.781Z,88.47
2019-05-17T06:32:11.883Z,76.17
2019-05-17T06:34:42.218Z,83.63
2019-05-17T06:37:12.996Z,73.57
2019-05-17T06:39:42.825Z,81.00
2019-05-17T06:42:12.212Z,85.17
2019-05-17T06:44:41.889Z,82.63
2019-05-17T06:47:11.943Z,82.10
2019-05-17T06:49:42.380Z,82.50
2019-05-17T06:52:11.925Z,76.00
2019-05-17T06:54:41.716Z,69.27
2019-05-17T06:57:12.792Z,72.37
2019-05-17T06:59:42.307Z,63.50
2019-05-17T07:02:11.645Z,70.27
2019-05-17T07:04:40.997Z,70.83
2019-05-17T07:07:30.388Z,65.20
2019-05-17T07:10:45.956Z,58.50
2019-05-17T07:13:15.290Z,60.90
2019-05-17T07:15:47.838Z,61.13
2019-05-17T07:18:21.333Z,64.87
2019-05-17T07:20:50.719Z,58.40
2019-05-17T07:23:20.047Z,55.70
2019-05-17T07:25:55.332Z,64.80
2019-05-17T07:28:24.661Z,64.90
2019-05-17T07:30:53.992Z,55.67
2019-05-17T07:33:23.347Z,62.17
2019-05-17T07:36:05.156Z,61.50
2019-05-17T07:38:47.089Z,59.80
2019-05-17T07:41:16.420Z,55.23
2019-05-17T07:43:45.756Z,52.67
2019-05-17T07:46:26.779Z,48.70
2019-05-17T07:48:56.108Z,48.53
2019-05-17T07:51:25.737Z,49.30
2019-05-17T07:54:07.494Z,44.50
2019-05-17T07:56:50.561Z,39.60
2019-05-17T07:59:31.754Z,36.43
2019-05-17T08:02:13.417Z,37.13
2019-05-17T08:04:42.764Z,37.63
2019-05-17T08:07:31.432Z,32.00
2019-05-17T08:10:01.085Z,30.00
2019-05-17T08:12:30.725Z,39.23
2019-05-17T08:15:46.606Z,36.90
2019-05-17T08:18:35.210Z,45.37
2019-05-17T08:21:04.569Z,38.03
2019-05-17T08:23:53.239Z,33.80
2019-05-17T08:26:22.594Z,35.70
2019-05-17T08:29:11.283Z,29.90
2019-05-17T08:31:53.241Z,43.30
2019-05-17T08:34:22.583Z,33.03
2019-05-17T08:36:51.917Z,31.50
2019-05-17T08:39:21.266Z,31.83
2019-05-17T08:42:09.975Z,32.20
2019-05-17T08:44:51.068Z,25.27
2019-05-17T08:47:20.989Z,31.93
2019-05-17T08:50:11.100Z,28.77
2019-05-17T08:52:40.508Z,28.43
2019-05-17T08:55:16.128Z,25.90
2019-05-17T08:57:45.491Z,27.83
2019-05-17T09:00:54.744Z,30.77
2019-05-17T09:03:24.074Z,29.30
2019-05-17T09:05:53.422Z,31.80
2019-05-17T09:08:42.104Z,27.00
2019-05-17T09:11:11.432Z,29.50
2019-05-17T09:13:53.404Z,24.90
2019-05-17T09:16:30.990Z,25.97
2019-05-17T09:19:00.632Z,27.80
2019-05-17T09:21:50.467Z,27.27
2019-05-17T09:24:19.790Z,23.90
2019-05-17T09:26:49.333Z,31.10
2019-05-17T09:29:25.631Z,35.13
2019-05-17T09:31:54.964Z,30.87
2019-05-17T09:34:24.312Z,34.03
2019-05-17T09:36:53.768Z,27.90
2019-05-17T09:39:23.108Z,29.37
2019-05-17T09:41:52.545Z,29.90
2019-05-17T09:44:21.897Z,33.07
2019-05-17T09:46:51.231Z,24.90
2019-05-17T09:49:20.586Z,26.77
2019-05-17T09:51:49.923Z,29.80
2019-05-17T09:54:20.158Z,31.80
2019-05-17T09:56:49.852Z,28.60
2019-05-17T09:59:20.364Z,25.10
2019-05-17T10:01:49.829Z,24.40
2019-05-17T10:04:19.841Z,26.10
2019-05-17T10:06:51.216Z,27.50
2019-05-17T10:09:20.454Z,31.60
2019-05-17T10:11:49.786Z,25.83
2019-05-17T10:14:28.081Z,25.60
2019-05-17T10:16:50.176Z,28.93
2019-05-17T10:19:21.874Z,25.37
2019-05-17T10:21:50.620Z,26.20
2019-05-17T10:24:28.057Z,24.43
2019-05-17T10:26:51.029Z,26.80
2019-05-17T10:29:20.370Z,23.23
2019-05-17T10:31:50.449Z,23.53
2019-05-17T10:34:20.366Z,28.93
2019-05-17T10:36:50.665Z,25.10
2019-05-17T10:39:20.454Z,27.40
2019-05-17T10:41:50.117Z,29.37
2019-05-17T10:44:19.925Z,28.97
2019-05-17T10:46:49.260Z,28.63
2019-05-17T10:49:20.182Z,27.13
2019-05-17T10:51:49.807Z,21.73
2019-05-17T10:54:20.586Z,25.53
2019-05-17T10:56:50.323Z,21.30
2019-05-17T10:59:20.301Z,25.10
2019-05-17T11:01:50.313Z,19.53
2019-05-17T11:04:19.852Z,24.33
2019-05-17T11:06:50.067Z,18.77
2019-05-17T11:09:20.497Z,16.90
2019-05-17T11:11:50.167Z,22.13
2019-05-17T11:14:19.514Z,21.60
2019-05-17T11:16:48.844Z,17.63
2019-05-17T11:19:18.194Z,17.47
2019-05-17T11:21:47.536Z,19.07
2019-05-17T11:24:16.874Z,21.10
2019-05-17T11:26:46.192Z,21.37
2019-05-17T11:29:15.538Z,15.60
2019-05-17T11:31:44.869Z,17.30
2019-05-17T11:34:14.200Z,17.20
2019-05-17T11:36:43.558Z,19.03
2019-05-17T11:39:12.887Z,17.77
2019-05-17T11:41:42.240Z,17.53
2019-05-17T11:44:11.585Z,19.80
2019-05-17T11:46:40.918Z,22.00
2019-05-17T11:49:10.248Z,20.73
2019-05-17T11:51:39.612Z,22.47
2019-05-17T11:54:09.191Z,18.63
2019-05-17T11:56:38.886Z,20.03
2019-05-17T11:59:08.235Z,21.37
2019-05-17T12:01:37.565Z,32.90
2019-05-17T12:04:06.972Z,17.13
2019-05-17T12:06:36.592Z,19.47
2019-05-17T12:09:06.670Z,14.80
2019-05-17T12:11:36.011Z,14.10
2019-05-17T12:14:05.423Z,14.07
2019-05-17T12:16:34.748Z,11.77
2019-05-17T12:19:04.741Z,17.90
2019-05-17T12:21:34.071Z,17.80
2019-05-17T12:24:03.399Z,15.30
2019-05-17T12:26:32.749Z,17.70
2019-05-17T12:29:02.086Z,15.33
2019-05-17T12:31:31.728Z,14.17
2019-05-17T12:34:01.074Z,13.30
2019-05-17T12:36:30.409Z,12.13
2019-05-17T12:38:59.738Z,15.17
2019-05-17T12:41:29.086Z,12.23
2019-05-17T12:43:58.416Z,20.40
2019-05-17T12:46:27.754Z,14.10
2019-05-17T12:48:57.095Z,15.30
2019-05-17T12:51:26.430Z,13.33
2019-05-17T12:53:55.759Z,18.13
2019-05-17T12:56:25.117Z,10.77
2019-05-17T12:58:54.451Z,10.67
2019-05-17T13:01:23.781Z,15.10
2019-05-17T13:03:53.121Z,11.93
2019-05-17T13:06:22.457Z,12.53
2019-05-17T13:08:51.797Z,11.73
2019-05-17T13:11:21.149Z,16.57
2019-05-17T13:13:50.465Z,12.30
2019-05-17T13:16:19.805Z,12.43
2019-05-17T13:18:49.150Z,10.03
2019-05-17T13:21:18.471Z,11.00
2019-05-17T13:23:47.803Z,11.30
2019-05-17T13:26:17.153Z,11.20
2019-05-17T13:28:46.487Z,12.77
2019-05-17T13:31:15.818Z,11.03
2019-05-17T13:33:45.164Z,10.63
2019-05-17T13:36:14.768Z,12.87
2019-05-17T13:38:44.098Z,9.10
2019-05-17T13:41:13.456Z,11.40
2019-05-17T13:43:42.810Z,10.53
2019-05-17T13:46:12.225Z,10.00
2019-05-17T13:48:41.538Z,9.90
2019-05-17T13:51:10.795Z,12.47
2019-05-17T13:53:40.125Z,9.73
2019-05-17T13:56:09.457Z,8.87
2019-05-17T13:58:38.812Z,10.40
2019-05-17T14:01:08.132Z,8.27
2019-05-17T14:03:37.524Z,9.27
2019-05-17T14:06:06.838Z,10.30
2019-05-17T14:08:36.089Z,12.43
2019-05-17T14:11:05.515Z,10.13
2019-05-17T14:13:34.867Z,10.13
2019-05-17T14:16:04.240Z,11.40
2019-05-17T14:18:33.574Z,18.97
2019-05-17T14:21:03.906Z,9.50
2019-05-17T14:23:33.540Z,10.53
2019-05-17T14:26:03.034Z,17.27
2019-05-17T14:28:32.468Z,12.87
2019-05-17T14:31:02.148Z,12.83
2019-05-17T14:33:31.765Z,11.70
2019-05-17T14:36:01.104Z,10.20
2019-05-17T14:38:30.427Z,11.47
2019-05-17T14:41:06.320Z,14.97
2019-05-17T14:43:31.764Z,13.33
2019-05-17T14:46:01.355Z,12.57
2019-05-17T14:48:30.698Z,12.40
2019-05-17T14:51:00.146Z,8.80
2019-05-17T14:53:29.457Z,9.70
2019-05-17T14:55:58.794Z,9.57
2019-05-17T14:58:28.119Z,12.20
2019-05-17T15:00:57.577Z,10.10
2019-05-17T15:03:26.930Z,10.33
2019-05-17T15:05:56.261Z,8.80
2019-05-17T15:08:25.856Z,4.80
2019-05-17T15:10:55.216Z,4.90
2019-05-17T15:13:24.511Z,5.20
2019-05-17T15:15:53.833Z,5.00
2019-05-17T15:18:23.175Z,5.20
2019-05-17T15:20:52.497Z,5.47
2019-05-17T15:23:21.885Z,9.33
2019-05-17T15:25:51.291Z,10.90
2019-05-17T15:28:20.619Z,10.33
2019-05-17T15:30:49.947Z,23.07
2019-05-17T15:33:19.562Z,14.70
2019-05-17T15:35:48.890Z,22.03
2019-05-17T15:38:18.229Z,9.67
2019-05-17T15:40:47.557Z,10.60
2019-05-17T15:43:16.889Z,10.43
2019-05-17T15:45:46.218Z,19.40
2019-05-17T15:48:15.547Z,13.80
2019-05-17T15:50:44.900Z,8.70
2019-05-17T15:53:14.230Z,9.50
2019-05-17T15:55:43.557Z,6.93
2019-05-17T15:58:12.944Z,8.77
2019-05-17T16:00:42.250Z,8.80
2019-05-17T16:03:11.605Z,7.80
2019-05-17T16:05:40.932Z,6.67
2019-05-17T16:08:10.303Z,10.23
2019-05-17T16:10:39.588Z,7.30
2019-05-17T16:13:08.926Z,17.30
2019-05-17T16:15:38.247Z,8.80
2019-05-17T16:18:07.573Z,13.90
2019-05-17T16:20:36.900Z,19.33
2019-05-17T16:23:06.262Z,16.40
2019-05-17T16:25:35.893Z,9.67
2019-05-17T16:28:05.231Z,17.33
2019-05-17T16:30:34.559Z,7.70
2019-05-17T16:33:03.878Z,7.60
2019-05-17T16:35:33.147Z,7.30
2019-05-17T16:38:02.479Z,7.60
2019-05-17T16:40:31.814Z,10.97
2019-05-17T16:43:16.782Z,8.07
2019-05-17T16:45:32.166Z,10.47
2019-05-17T16:48:01.493Z,7.93
2019-05-17T16:50:30.745Z,9.33
2019-05-17T16:53:05.931Z,7.73
2019-05-17T16:55:31.473Z,7.50
2019-05-17T16:58:00.885Z,7.70
2019-05-17T17:00:41.841Z,16.60
2019-05-17T17:03:11.178Z,10.80
2019-05-17T17:05:40.507Z,6.83
2019-05-17T17:08:09.967Z,7.87
2019-05-17T17:10:39.303Z,10.80
2019-05-17T17:13:08.702Z,15.33
2019-05-17T17:15:38.099Z,6.80
2019-05-17T17:18:07.531Z,18.83
2019-05-17T17:20:36.938Z,14.10
2019-05-17T17:23:06.257Z,7.90
2019-05-17T17:25:35.581Z,7.77
2019-05-17T17:28:06.172Z,7.30
2019-05-17T17:30:35.582Z,9.03
2019-05-17T17:33:04.984Z,7.80
2019-05-17T17:35:34.802Z,8.60
2019-05-17T17:38:04.194Z,14.17
2019-05-17T17:40:33.595Z,7.57
2019-05-17T17:43:02.916Z,7.00
2019-05-17T17:45:32.246Z,13.77
2019-05-17T17:48:01.568Z,11.50
2019-05-17T17:50:30.835Z,11.43
2019-05-17T17:53:00.426Z,9.50
2019-05-17T17:55:29.719Z,9.13
2019-05-17T17:57:59.051Z,8.60
2019-05-17T18:00:28.441Z,8.23
2019-05-17T18:02:57.790Z,7.77
2019-05-17T18:05:27.099Z,25.73
2019-05-17T18:07:56.568Z,16.13
2019-05-17T18:10:31.666Z,18.57
2019-05-17T18:13:01.131Z,15.73
2019-05-17T18:15:43.983Z,11.23
2019-05-17T18:18:13.964Z,9.07
2019-05-17T18:20:43.543Z,10.80
2019-05-17T18:23:13.097Z,7.63
2019-05-17T18:25:42.491Z,10.10
2019-05-17T18:28:11.992Z,8.60
2019-05-17T18:30:41.454Z,8.00
2019-05-17T18:33:10.842Z,8.43
2019-05-17T18:35:40.645Z,10.57
2019-05-17T18:38:10.599Z,9.30
2019-05-17T18:40:39.951Z,6.73
2019-05-17T18:43:09.270Z,6.47
2019-05-17T18:45:41.050Z,7.30
2019-05-17T18:48:11.640Z,7.13
2019-05-17T18:50:41.034Z,6.80
2019-05-17T18:53:16.522Z,20.57
2019-05-17T18:55:41.484Z,7.50
2019-05-17T18:58:10.816Z,6.90
2019-05-17T19:00:40.152Z,7.83
2019-05-17T19:03:09.469Z,7.30
2019-05-17T19:05:38.809Z,8.53
2019-05-17T19:08:08.161Z,6.90
2019-05-17T19:10:37.567Z,6.70
2019-05-17T19:13:07.146Z,7.43
2019-05-17T19:15:36.473Z,6.70
2019-05-17T19:18:05.810Z,7.70
2019-05-17T19:20:35.134Z,7.20
2019-05-17T19:23:04.537Z,6.60
2019-05-17T19:25:34.089Z,8.80
2019-05-17T19:28:03.491Z,7.23
2019-05-17T19:30:33.167Z,9.03
2019-05-17T19:33:02.489Z,7.27
2019-05-17T19:35:31.825Z,7.63
2019-05-17T19:38:01.152Z,7.50
2019-05-17T19:40:31.170Z,8.87
2019-05-17T19:43:00.731Z,8.53
2019-05-17T19:45:30.066Z,7.87
2019-05-17T19:47:59.387Z,9.90
2019-05-17T19:50:28.720Z,38.60
2019-05-17T19:52:58.058Z,115.60
2019-05-17T19:55:27.446Z,83.73
2019-05-17T19:57:56.781Z,98.40
2019-05-17T20:00:26.184Z,89.70
2019-05-17T20:02:55.540Z,117.67
2019-05-17T20:05:24.889Z,140.57
2019-05-17T20:07:55.253Z,71.93
2019-05-17T20:10:25.040Z,60.63
2019-05-17T20:12:55.475Z,58.00
2019-05-17T20:15:34.213Z,36.63
2019-05-17T20:17:55.844Z,59.77
2019-05-17T20:20:25.184Z,72.73
2019-05-17T20:22:54.559Z,31.17
2019-05-17T20:25:23.877Z,36.30
2019-05-17T20:27:53.271Z,34.63
2019-05-17T20:30:22.614Z,40.13
2019-05-17T20:32:51.963Z,27.13
2019-05-17T20:35:21.317Z,17.90
2019-05-17T20:37:50.658Z,20.87
2019-05-17T20:40:20.060Z,68.77
2019-05-17T20:42:49.439Z,42.37
2019-05-17T20:45:32.047Z,36.20
2019-05-17T20:47:49.929Z,55.77
2019-05-17T20:50:19.432Z,46.13
2019-05-17T20:52:48.777Z,52.23
2019-05-17T20:55:18.124Z,30.83
2019-05-17T20:57:47.467Z,38.97
2019-05-17T21:00:18.260Z,20.87
2019-05-17T21:02:47.593Z,27.17
2019-05-17T21:05:18.435Z,30.50
2019-05-17T21:07:47.765Z,29.10
2019-05-17T21:10:17.341Z,19.83
2019-05-17T21:12:46.715Z,20.80
2019-05-17T21:15:16.168Z,14.47
2019-05-17T21:17:45.520Z,14.43
2019-05-17T21:20:16.649Z,11.10
2019-05-17T21:22:46.000Z,12.63
2019-05-17T21:25:15.475Z,9.93
2019-05-17T21:27:44.784Z,11.73
2019-05-17T21:30:15.555Z,9.27
2019-05-17T21:32:47.797Z,13.13
2019-05-17T21:38:18.594Z,14.53
2019-05-17T21:40:59.747Z,11.93
2019-05-17T21:43:41.637Z,10.80
2019-05-17T21:46:10.984Z,14.10
2019-05-17T21:48:40.360Z,14.37
2019-05-17T21:51:09.642Z,9.97
2019-05-17T21:53:58.319Z,9.47
2019-05-17T21:56:27.897Z,9.13
2019-05-17T21:59:12.625Z,8.87
2019-05-17T22:01:40.769Z,9.17
2019-05-17T22:04:29.454Z,13.50
2019-05-17T22:06:58.898Z,10.50
2019-05-17T22:09:28.207Z,10.23
2019-05-17T22:12:11.782Z,8.70
2019-05-17T22:14:52.779Z,9.43
2019-05-17T22:17:22.347Z,9.10
2019-05-17T22:20:11.041Z,12.90
2019-05-17T22:22:40.413Z,10.63
2019-05-17T22:25:29.098Z,9.40
2019-05-17T22:27:58.428Z,10.40
2019-05-17T22:30:47.119Z,9.73
2019-05-17T22:33:16.787Z,13.17
2019-05-17T22:35:46.132Z,11.67
2019-05-17T22:38:28.065Z,11.93
2019-05-17T22:40:57.399Z,9.67
2019-05-17T22:43:26.737Z,11.20
2019-05-17T22:45:56.067Z,10.57
2019-05-17T22:48:44.846Z,10.87
2019-05-17T22:51:26.321Z,12.10
2019-05-17T22:53:55.659Z,8.60
2019-05-17T22:56:24.986Z,13.83
2019-05-17T22:59:12.026Z,9.10
2019-05-17T23:01:53.773Z,12.80
2019-05-17T23:04:23.121Z,12.07
2019-05-17T23:07:11.796Z,13.20
2019-05-17T23:09:41.144Z,12.10
2019-05-17T23:12:10.481Z,14.87
2019-05-17T23:14:39.819Z,17.93
2019-05-17T23:17:09.194Z,21.80
2019-05-17T23:19:57.873Z,15.40
2019-05-17T23:22:27.216Z,14.17
2019-05-17T23:25:15.893Z,14.17
2019-05-17T23:27:45.248Z,36.17
2019-05-17T23:30:33.848Z,33.83
2019-05-17T23:33:03.197Z,41.17
2019-05-17T23:35:51.814Z,14.03
2019-05-17T23:38:21.159Z,19.90
2019-05-17T23:40:50.498Z,17.63
2019-05-17T23:43:50.845Z,14.00
2019-05-17T23:46:20.178Z,15.43
2019-05-17T23:49:08.868Z,30.63
2019-05-17T23:51:38.208Z,28.13
2019-05-17T23:54:26.892Z,28.43
2019-05-17T23:57:07.920Z,25.60
2019-05-17T23:59:48.986Z,29.30
